Hoppa till innehåll

METAR väder och rapporter - EKBI

Nedan listas information från vald flygplats. Andra METARs finns längre ned på sidan. Kontakta oss om någon saknas eller skriv in egen ICAO-kod.

Coded METAR: 2022/01/28 15:20 EKBI 281520Z AUTO 26007KT 9999 BKN034/// 04/M00 Q1026

Weather Report @ EKBI

Issued: 28th Jan 2022 at 16:20 CET

Wind: gentle breeze from the West (260 degrees) at 7 knots (8 mph, 13 kph, 4 mps, Force 3)
Visibility: 10km or more
Cloud: broken at 3400 feet
Temperature: 39F / 4C
Dewpoint: 32F / -0C
Humidity: 75%
Pressure: 1026 hPa

Coded TAF: 2022/01/28 12:30 TAF EKBI 281117Z 2812/2912 29010KT CAVOK BECMG 2815/2818 23008KT FM282000 22015KT 8000 -RADZ BKN012 TEMPO 2820/2824 23015G25KT 4000 RADZ BKN008 BECMG 2900/2902 23015G25KT 4000 RADZ BKN006 TEMPO 2902/2909 2500 BR BKN004 TEMPO 2909/2912 25025G35KT 6000 NSW BKN012

Weather Forecast @ EKBI

Issued: 28th Jan 2022 at 13:30 CET

Valid : 28th Jan 13:00 until 29th Jan 13:00 CET

13:00 CET
Wind: gentle breeze from West-Northwest (290 degrees) at 10 knots (12 mph, 19 kph, 5 mps, Force 3)
Weather: good visibility and no low cloud (ceiling and visibility OK)

16:00 CET to 19:00 CET
becoming:

Wind: gentle breeze from the Southwest (230 degrees) at 8 knots (9 mph, 15 kph, 4 mps, Force 3)

21:00 CET becoming:
Wind: moderate breeze from the Southwest (220 degrees) at 15 knots (17 mph, 28 kph, 8 mps, Force 4)
Visibility: 8000 metres
Weather: light rain and drizzle
Cloud: broken at 1200 feet

21:00 CET to 01:00 CET
Occasional

Wind: moderate breeze from the Southwest (230 degrees) at 15 knots (17 mph, 28 kph, 8 mps, Force 4) gusting to 25 knots (29 mph 46 kph, 13 mps)
Visibility: 4000 metres
Weather: rain and drizzle
Cloud: broken at 800 feet

01:00 CET to 03:00 CET
becoming:

Wind: moderate breeze from the Southwest (230 degrees) at 15 knots (17 mph, 28 kph, 8 mps, Force 4) gusting to 25 knots (29 mph 46 kph, 13 mps)
Visibility: 4000 metres
Weather: rain and drizzle
Cloud: broken at 600 feet

03:00 CET to 10:00 CET
Occasional

Visibility: 2500 metres
Weather: mist
Cloud: broken at 400 feet

10:00 CET to 13:00 CET
Occasional

Wind: strong breeze from West-Southwest (250 degrees) at 25 knots (29 mph, 46 kph, 13 mps, Force 6) gusting to 35 knots (40 mph 65 kph, 18 mps)
Visibility: 6000 metres
Weather: no significant weather
Cloud: broken at 1200 feet

Internet delivery of weather data is not secure or reliable enough for operational purposes.

NEVER RELY ON THE OUTPUT OF THIS SCRIPT TO MAKE DECISIONS ABOUT ANYTHING IN WHICH THE WEATHER FORECAST AND ITS INTERPRETATION COULD BE AN ISSUE OF SAFETY.

Andra intressanta METARs

Klicka på önskad rubrik nedan för att visa nuvarande väder för den platsen.

Avstånd från stationen: NO 27kmESGG - Göteborg (Landvetter)
Uppdaterad: 2022-01-28 15:50
 Vind från V
Vind: V 7 km/h
Temperatur: 2°C
Vindavkylning: 0°C
Daggpunkt: -5°C
Luftfuktighet: 60%
Barometer: 1022 hPa
Summering: Klart
Sikt: mer än 10 km
2022/01/28 14:50 ESGG 281450Z 26004KT CAVOK 02/M05 Q1022
Klart
Klart
  Visa detaljer för Göteborg (Landvetter)
Avstånd från stationen: N 28kmESGP - Göteborg (Säve)
Uppdaterad: 2022-01-28 16:20
 Vind från SSV
Vind: SSV 6 km/h
Temperatur: 1°C
Daggpunkt: -4°C
Luftfuktighet: 70%
Barometer: 1022 hPa
Summering: Klart
Sikt: mer än 10 km
2022/01/28 15:20 ESGP 281520Z 20003KT CAVOK 01/M04 Q1022
Klart
Klart
  Visa detaljer för Göteborg (Säve)
Avstånd från stationen: NO 419kmESSA - Stockholm (Arlanda)
Uppdaterad: 2022-01-28 16:20
 Vind från VNV
Vind: VNV 17 km/h
Temperatur: -1°C
Vindavkylning: -6°C
Daggpunkt: -7°C
Luftfuktighet: 64%
Barometer: 1015 hPa
Summering: Klart
Sikt: mer än 10 km
2022/01/28 15:20 ESSA 281520Z 29009KT CAVOK M01/M07 Q1015 NOSIG
Klart
Klart
  Visa detaljer för Stockholm (Arlanda)
Avstånd från stationen: ONO 404kmESSB - Stockholm (Bromma)
Uppdaterad: 2022-01-28 16:20
 Vind från VNV
Vind: VNV 17 km/h
Temperatur: 0°C
Vindavkylning: -4°C
Daggpunkt: -6°C
Luftfuktighet: 64%
Barometer: 1016 hPa
Summering: Klart
Sikt: mer än 10 km
2022/01/28 15:20 ESSB 281520Z 29009KT CAVOK 00/M06 Q1016
Klart
Klart
  Visa detaljer för Stockholm (Bromma)
Avstånd från stationen: ONO 323kmESKN - Stockholm (Skavsta)
Uppdaterad: 2022-01-28 16:20
 Vind från VNV
Vind: VNV 20 km/h
Temperatur: 1°C
Vindavkylning: -4°C
Daggpunkt: -6°C
Luftfuktighet: 60%
Barometer: 1017 hPa
Summering: Klart
Sikt: mer än 10 km
2022/01/28 15:20 ESKN 281520Z 29011KT CAVOK 01/M06 Q1017
Klart
Klart
  Visa detaljer för Stockholm (Skavsta)
Avstånd från stationen: SSO 238kmESMS - Malmö flygplats (Sturup)
Uppdaterad: 2022-01-28 16:20
 Vind från NV
Vind: NV 11 km/h
Temperatur: 2°C
Vindavkylning: -1°C
Daggpunkt: -6°C
Luftfuktighet: 56%
Barometer: 1024 hPa
Summering: Klart
Sikt: mer än 10 km
2022/01/28 15:20 ESMS 281520Z 31006KT 290V350 CAVOK 02/M06 Q1024
Klart
Klart
  Visa detaljer för Malmö flygplats (Sturup)
Avstånd från stationen: O 382kmESSV - Visby flygplats
Uppdaterad: 2022-01-28 16:20
 Vind från NV
Vind: NV 39 km/h
Temperatur: 2°C
Vindavkylning: -4°C
Daggpunkt: -4°C
Luftfuktighet: 65%
Barometer: 1016 hPa
Summering: Klart
Sikt: mer än 10 km
2022/01/28 15:20 ESSV 281520Z 32021KT CAVOK 02/M04 Q1016
Klart
Klart
  Visa detaljer för Visby flygplats
Avstånd från stationen: NNO 92kmESGT - Trollhättan
Uppdaterad: 2022-01-28 16:20
 Vind från SV
Vind: SV 9 km/h
Temperatur: 2°C
Vindavkylning: -1°C
Daggpunkt: -6°C
Luftfuktighet: 56%
Barometer: 1021 hPa
Moln: Klart
Sikt: 10 km
2022/01/28 15:20 ESGT 281520Z AUTO 22005KT 180V240 9999 NCD 02/M06 Q1021
Klart
Klart
  Visa detaljer för Trollhättan
Avstånd från stationen: ONO 129kmESGJ - Jönköpings flygplats
Uppdaterad: 2022-01-28 16:20
 Vind från V
Vind: V 9 km/h
Temperatur: 0°C
Vindavkylning: -3°C
Daggpunkt: -7°C
Luftfuktighet: 60%
Barometer: 1020 hPa
Moln: Klart
Sikt: 10 km
2022/01/28 15:20 ESGJ 281520Z AUTO 27005KT 9999 NCD M00/M07 Q1020
Klart
Klart
  Visa detaljer för Jönköpings flygplats
Avstånd från stationen: NNO 229kmESOK - Karlstad
Uppdaterad: 2022-01-28 16:20
 Vind från SV
Vind: SV 11 km/h
Temperatur: 1°C
Vindavkylning: -2°C
Daggpunkt: -7°C
Luftfuktighet: 56%
Barometer: 1019 hPa
Summering: Klart
Sikt: mer än 10 km
2022/01/28 15:20 ESOK 281520Z 23006KT CAVOK 01/M07 Q1019
Klart
Klart
  Visa detaljer för Karlstad
Avstånd från stationen: N 643kmESNZ - Östersund (Frösön)
Uppdaterad: 2022-01-28 16:20
 Vind från S
Vind: S 15 km/h
Temperatur: -2°C
Vindavkylning: -7°C
Daggpunkt: -6°C
Luftfuktighet: 74%
Barometer: 1008 hPa
Moln: Några få moln
Sikt: 10 km
Molninformation: Några få moln 1615 m
2022/01/28 15:20 ESNZ 281520Z 18008KT 9999 FEW053 M02/M06 Q1008
Några få moln
Några få moln
  Visa detaljer för Östersund (Frösön)
Avstånd från stationen: SSO 216kmEKCH - Köpenhamn (Kastrup)
Uppdaterad: 2022-01-28 16:20
 Vind från VNV
Vind: VNV 13 km/h
Temperatur: 5°C
Vindavkylning: 2°C
Daggpunkt: -9°C
Luftfuktighet: 36%
Barometer: 1025 hPa
Moln: Klart
Sikt: 10 km
2022/01/28 15:20 EKCH 281520Z AUTO 30007KT 9999 NCD 05/M09 Q1025 NOSIG
Klart
Klart
  Visa detaljer för Köpenhamn (Kastrup)
Avstånd från stationen: SV 263kmEKBI - Billund Airport
Uppdaterad: 2022-01-28 16:20
 Vind från V
Vind: V 13 km/h
Temperatur: 4°C
Vindavkylning: 1°C
Daggpunkt: 0°C
Luftfuktighet: 75%
Barometer: 1026 hPa
Moln: Övervägande molnigt
Sikt: 10 km
Molninformation: Övervägande molnigt 1036 m
2022/01/28 15:20 EKBI 281520Z AUTO 26007KT 9999 BKN034/// 04/M00 Q1026
Övervägande molnigt
Övervägande molnigt
  Visa detaljer för Billund Airport
Avstånd från stationen: N 302kmENGM - Oslo (Gardermoen)
Uppdaterad: 2022-01-28 16:20
 Vind från S
Vind: S 13 km/h
Temperatur: 0°C
Vindavkylning: -4°C
Daggpunkt: -8°C
Luftfuktighet: 55%
Barometer: 1017 hPa
Summering: Klart
Sikt: mer än 10 km
2022/01/28 15:20 ENGM 281520Z 19007KT CAVOK M00/M08 Q1017 NOSIG
Klart
Klart
  Visa detaljer för Oslo (Gardermoen)
Avstånd från stationen: NO 540kmEFMA - Mariehamn / Åland
Uppdaterad: 2022-01-28 16:20
 Vind från NNV
Vind: NNV 20 km/h
Temperatur: 0°C
Vindavkylning: -6°C
Daggpunkt: -6°C
Luftfuktighet: 64%
Barometer: 1013 hPa
Summering: Klart
Sikt: mer än 10 km
2022/01/28 15:20 EFMA 281520Z AUTO 33011KT CAVOK M00/M06 Q1013
Klart
Klart
  Visa detaljer för Mariehamn / Åland
Avstånd från stationen: S 558kmEDDT - Berlin (Tegel), Germany
Uppdaterad: 2020-11-09 07:50
Ej aktuell
 Vind från O
Vind: O 11 km/h
Temperatur: 6°C
Vindavkylning: 4°C
Daggpunkt: 5°C
Luftfuktighet: 93%
Barometer: 1027 hPa
Summering: Dimmigt
Moln: Genommulet
Sikt: 3 km
Molninformation: Genommulet 91 m
2020/11/09 06:50 EDDT 090650Z 09006KT 050V120 3000 BR OVC003 06/05 Q1027
Dimmigt, Genommulet
Dimmigt
Genommulet
  Visa detaljer för Berlin (Tegel), Germany
Avstånd från stationen: SV 737kmEHAM - Amsterdam (Schiphol)
Uppdaterad: 2022-01-28 16:25
 Vind från VSV
Vind: VSV 22 km/h
Temperatur: 7°C
Vindavkylning: 4°C
Daggpunkt: 5°C
Luftfuktighet: 87%
Barometer: 1032 hPa
Moln: Några få moln
Sikt: 10 km
Molninformation: Några få moln 396 m
2022/01/28 15:25 EHAM 281525Z 25012KT 210V270 9999 FEW013 07/05 Q1032 NOSIG
Några få moln
Några få moln
  Visa detaljer för Amsterdam (Schiphol)
Avstånd från stationen: ONO 808kmEFHK - Helsingfors (Vantaa)
Uppdaterad: 2022-01-28 16:20
 Vind från NNV
Vind: NNV 24 km/h
Temperatur: -2°C
Vindavkylning: -9°C
Daggpunkt: -3°C
Luftfuktighet: 93%
Barometer: 1005 hPa
Moln: Övervägande molnigt
Sikt: 10 km
Molninformation: Några få moln 457 m
Övervägande molnigt 1372 m
2022/01/28 15:20 EFHK 281520Z 33013KT 9999 FEW015 BKN045 M02/M03 Q1005 NOSIG
Övervägande molnigt
Övervägande molnigt
  Visa detaljer för Helsingfors (Vantaa)
Avstånd från stationen: SSV 537kmEDDW - Bremen
Uppdaterad: 2022-01-28 16:20
 Vind från V
Vind: V 15 km/h
Temperatur: 6°C
Vindavkylning: 3°C
Daggpunkt: 1°C
Luftfuktighet: 71%
Barometer: 1031 hPa
Moln: Övervägande molnigt
Sikt: 10 km
Molninformation: Övervägande molnigt 1036 m
2022/01/28 15:20 EDDW 281520Z 28008KT 9999 BKN034 06/01 Q1031 NOSIG
Övervägande molnigt
Övervägande molnigt
  Visa detaljer för Bremen
Avstånd från stationen: SSV 861kmEDDF - Frankfurt am Main
Uppdaterad: 2022-01-28 16:20
 Vind från NV
Vind: NV 13 km/h
Temperatur: 7°C
Vindavkylning: 5°C
Daggpunkt: 0°C
Luftfuktighet: 61%
Barometer: 1033 hPa
Moln: Några få moln
Sikt: 10 km
Molninformation: Några få moln 1067 m
2022/01/28 15:20 EDDF 281520Z 32007KT 9999 FEW035 07/00 Q1033 NOSIG
Några få moln
Några få moln
  Visa detaljer för Frankfurt am Main
Avstånd från stationen: SV 880kmEBBR - Bryssel international
Uppdaterad: 2022-01-28 16:20
 Vind från VSV
Vind: VSV 7 km/h
Temperatur: 6°C
Vindavkylning: 4°C
Daggpunkt: 4°C
Luftfuktighet: 87%
Barometer: 1035 hPa
Moln: Övervägande molnigt
Sikt: 6 km
Molninformation: Övervägande molnigt 213 m
2022/01/28 15:20 EBBR 281520Z 25004KT 6000 BKN007 06/04 Q1035 NOSIG
Övervägande molnigt
Övervägande molnigt
  Visa detaljer för Bryssel international
Avstånd från stationen: SV 738kmEHAM - Amsterdam (Schiphol)
Uppdaterad: 2022-01-28 16:25
 Vind från VSV
Vind: VSV 22 km/h
Temperatur: 7°C
Vindavkylning: 4°C
Daggpunkt: 5°C
Luftfuktighet: 87%
Barometer: 1032 hPa
Moln: Några få moln
Sikt: 10 km
Molninformation: Några få moln 396 m
2022/01/28 15:25 EHAM 281525Z 25012KT 210V270 9999 FEW013 07/05 Q1032 NOSIG
Några få moln
Några få moln
  Visa detaljer för Amsterdam (Schiphol)
Avstånd från stationen: SV 1044kmEGLL - London (Heathrow)
Uppdaterad: 2022-01-28 16:20
 Vind från VSV
Vind: VSV 19 km/h
Temperatur: 9°C
Vindavkylning: 6°C
Daggpunkt: 4°C
Luftfuktighet: 71%
Barometer: 1034 hPa
Moln: Klart
Sikt: 10 km
2022/01/28 15:20 EGLL 281520Z AUTO 25010KT 9999 NCD 09/04 Q1034 NOSIG
Klart
Klart
  Visa detaljer för London (Heathrow)
Avstånd från stationen: SV 1132kmLFPG - Paris (Charles de Gaulle)
Uppdaterad: 2022-01-28 16:00
 Vind från SV
Vind: SV 17 km/h
Temperatur: 7°C
Vindavkylning: 4°C
Daggpunkt: 4°C
Luftfuktighet: 81%
Barometer: 1036 hPa
Moln: Övervägande molnigt
Sikt: 10 km
Molninformation: Övervägande molnigt 640 m
2022/01/28 15:00 LFPG 281500Z 22009KT 9999 BKN021 07/04 Q1036 NOSIG
Övervägande molnigt
Övervägande molnigt
  Visa detaljer för Paris (Charles de Gaulle)
Avstånd från stationen: SSV 1142kmLSZH - Zürich Airport
Uppdaterad: 2022-01-28 16:20
 Vind från NV
Vind: NV 15 km/h
Temperatur: 6°C
Vindavkylning: 3°C
Daggpunkt: -1°C
Luftfuktighet: 61%
Barometer: 1035 hPa
Moln: Några få moln
Sikt: 10 km
Molninformation: Några få moln 823 m
2022/01/28 15:20 LSZH 281520Z 31008KT 9999 FEW027 06/M01 Q1035 NOSIG
Några få moln
Några få moln
  Visa detaljer för Zürich Airport
Avstånd från stationen: S 1749kmLIRF - Rome Airport (Fiumicino - Leonardo da Vinci)
Uppdaterad: 2022-01-28 16:20
 Vind från VNV
Vind: VNV 13 km/h
Temperatur: 13°C
Daggpunkt: 8°C
Luftfuktighet: 72%
Barometer: 1023 hPa
Moln: Några få moln
Sikt: 10 km
Molninformation: Några få moln 914 m
2022/01/28 15:20 LIRF 281520Z 30007KT 9999 FEW030 13/08 Q1023 NOSIG
Några få moln
Några få moln
  Visa detaljer för Rome Airport (Fiumicino - Leonardo da Vinci)
Avstånd från stationen: SO 2679kmLTAI - Antalya
Uppdaterad: 2022-01-28 16:20
 Vind från varierande
Vind: varierande 4 km/h
Temperatur: 8°C
Daggpunkt: -6°C
Luftfuktighet: 37%
Barometer: 1019 hPa
Summering: Klart
Sikt: mer än 10 km
2022/01/28 15:20 LTAI 281520Z VRB02KT CAVOK 08/M06 Q1019 NOSIG
Klart
Klart
  Visa detaljer för Antalya
Avstånd från stationen: VSV 6074kmKJFK - New Your (JFK)
Uppdaterad: 2022-01-28 16:03
 Vind från SSV
Vind: SSV 9 km/h
Temperatur: -2°C
Vindavkylning: -6°C
Daggpunkt: -3°C
Luftfuktighet: 93%
Barometer: 1021.7 hPa
Summering: Light snow, Dimmigt
Moln: Genommulet
Sikt: 10 km
Molninformation: Övervägande molnigt 244 m
Övervägande molnigt 671 m
Genommulet 1067 m
2022/01/28 15:03 KJFK 281503Z 21005KT 6SM -SN BR BKN008 BKN022 OVC035 M02/M03 A3017 RMK AO2 P0000 T10171033
Light snow, Dimmigt, Genommulet
Light snow
Dimmigt
Genommulet
  Visa detaljer för New Your (JFK)
Avstånd från stationen: VSV 8848kmKLAX - Los Angeles International Airport
Uppdaterad: 2022-01-28 15:53
 Vind från varierande
Vind: varierande 7 km/h
Temperatur: 14°C
Daggpunkt: -5°C
Luftfuktighet: 27%
Barometer: 1024.4 hPa
Moln: Övervägande molnigt
Sikt: 16 km
Molninformation: Några få moln 7315 m
Övervägande molnigt 9144 m
2022/01/28 14:53 KLAX 281453Z VRB04KT 10SM FEW240 BKN300 14/M05 A3025 RMK AO2 SLP241 T01391050 53014
Övervägande molnigt
Övervägande molnigt
  Visa detaljer för Los Angeles International Airport
Avstånd från stationen: SO 4968kmOMDB - Dubai International Airport
Uppdaterad: 2022-01-28 16:00
 Vind från NV
Vind: NV 19 km/h
Temperatur: 23°C
Daggpunkt: 17°C
Luftfuktighet: 69%
Barometer: 1018 hPa
Summering: Klart
Sikt: mer än 10 km
2022/01/28 15:00 OMDB 281500Z 31010KT CAVOK 23/17 Q1018 NOSIG
Klart
Klart
  Visa detaljer för Dubai International Airport
Avstånd från stationen: OSO 8570kmRJTT - Tokyo International Airport
Uppdaterad: 2022-01-28 16:00
 Vind från N
Vind: N 31 km/h
Temperatur: 6°C
Vindavkylning: 1°C
Daggpunkt: -5°C
Luftfuktighet: 46%
Barometer: 1014 hPa
Moln: Några få moln
Sikt: 10 km
Molninformation: Några få moln 1524 m
2022/01/28 15:00 RJTT 281500Z 35017KT 9999 FEW050 06/M05 Q1014 NOSIG
Några få moln
Några få moln
  Visa detaljer för Tokyo International Airport
Avstånd från stationen: OSO 7125kmZBAA - Peking (Beijing Capital)
Uppdaterad: 2022-01-28 16:00
 Vind från NNV
Vind: NNV 11 km/h
Temperatur: -7°C
Vindavkylning: -12°C
Daggpunkt: -14°C
Luftfuktighet: 58%
Barometer: 1030 hPa
Summering: Klart
Sikt: mer än 10 km
2022/01/28 15:00 ZBAA 281500Z 34003MPS CAVOK M07/M14 Q1030 NOSIG
Klart
Klart
  Visa detaljer för Peking (Beijing Capital)
VÄDER KURIOSA -  Weather TermsWinter Weather Advisory - Hazardous winter weather conditions are occurring, imminent or likely. Conditions will cause a significant inconvenience and if caution is not exercised, will result in a potential threat to life and/or property. The generic term, winter weather advisory, is used for a combination of two or more of the following events; snow, freezing rain or drizzle, sleet, blowing snow.